Highgate, VT

2:33 PM EDT on August 20, 2019 (GMT -0400)
Franklin County State

Weather History for KFSO - June, 2019

Change the Weather History Date:

Saturday, June 8, 2019

  Actual Average (WUND) Record (WUND)
Temperature  
Mean Temperature 60 °F -  
Max Temperature 75 °F - - (-1)
Min Temperature 46 °F - - (-1)
Degree Days  
Heating Degree Days 4    
Growing Degree Days 10 (Base 50)    
Moisture  
Dew Point 43 °F    
Average Humidity 57    
Maximum Humidity 96    
Minimum Humidity 21    
Precipitation  
Precipitation 0.00 in - - ()
Sea Level Pressure  
Sea Level Pressure 30.20 in    
Wind  
Wind Speed 2 mph (North)    
Max Wind Speed 9 mph    
Max Gust Speed -    
Visibility 10 miles    
Events      
Averages and records for this station are not official NWS values.
T = Trace of Precipitation, MM = Missing Value Source: NWS Daily Summary

Daily Weather History Graph

Daily Weather History Graph

Search for Another Location

Airport or City:

Astronomy

Jun. 08, 2019 Rise Set
Actual Time 5:06 AM EDT 8:36 PM EDT
Civil Twilight 4:29 AM EDT 9:13 PM EDT
Nautical Twilight 3:40 AM EDT 10:02 PM EDT
Astronomical Twilight 2:38 AM EDT 11:05 PM EDT
Moon 10:36 AM EDT (6/8) 12:31 AM EDT (6/8)
Length of Visible Light 16h 44m
Length of Day
15h 30m
Waxing Crescent, 32% of the Moon is Illuminated
Jun 8
Waxing Crescent
Jun 10
First Quarter
Jun 17
Full
Jun 25
Last Quarter
Jul 2
New

Hourly Weather History & Observations

Time (EDT) Temp. Dew Point Humidity Pressure Visibility Wind Dir Wind Speed Gust Speed Precip Events Conditions
12:15 AM 55.9 °F 52.2 °F 87% 30.05 in 10.0 mi Calm Calm - N/A   Clear
12:36 AM 54.5 °F 51.3 °F 89% 30.05 in 10.0 mi Calm Calm - N/A   Clear
12:55 AM 53.8 °F 50.9 °F 90% 30.05 in 10.0 mi Calm Calm - N/A   Clear
1:15 AM 53.6 °F 51.1 °F 91% 30.06 in 10.0 mi Calm Calm - N/A   Clear
1:36 AM 53.2 °F 50.9 °F 92% 30.07 in 10.0 mi Calm Calm - N/A   Clear
1:55 AM 53.4 °F 51.3 °F 92% 30.07 in 10.0 mi Calm Calm - N/A   Clear
2:16 AM 51.6 °F 49.8 °F 94% 30.08 in 10.0 mi Calm Calm - N/A   Clear
2:55 AM 50.7 °F 49.3 °F 95% 30.10 in 10.0 mi Calm Calm - N/A   Clear
3:16 AM 49.5 °F 48.0 °F 95% 30.11 in 10.0 mi Calm Calm - N/A   Clear
3:35 AM 49.6 °F 48.4 °F 95% 30.11 in 10.0 mi Calm Calm - N/A   Clear
3:55 AM 48.6 °F 47.3 °F 95% 30.12 in 10.0 mi Calm Calm - N/A   Clear
4:15 AM 48.4 °F 46.9 °F 95% 30.13 in 10.0 mi Calm Calm - N/A   Clear
4:36 AM 47.1 °F 45.9 °F 95% 30.13 in 10.0 mi Calm Calm - N/A   Clear
4:56 AM 46.6 °F 45.5 °F 96% 30.14 in 10.0 mi Calm Calm - N/A   Clear
5:15 AM 48.2 °F 46.9 °F 95% 30.15 in 10.0 mi Calm Calm - N/A   Clear
5:36 AM 48.0 °F 46.8 °F 95% 30.16 in 7.0 mi Calm Calm - N/A   Clear
5:55 AM 48.0 °F 46.6 °F 95% 30.17 in 10.0 mi Calm Calm - N/A   Clear
6:16 AM 50.4 °F 49.1 °F 95% 30.17 in 10.0 mi Calm Calm - N/A   Clear
6:35 AM 50.9 °F 49.6 °F 95% 30.18 in 10.0 mi Calm Calm - N/A   Clear
6:55 AM 53.6 °F 52.2 °F 95% 30.19 in 10.0 mi Calm Calm - N/A   Clear
7:15 AM 55.8 °F 51.1 °F 84% 30.19 in 10.0 mi North 3.5 mph - N/A   Clear
7:36 AM 58.3 °F 48.6 °F 70% 30.20 in 10.0 mi North 3.5 mph - N/A   Clear
7:55 AM 60.1 °F 48.7 °F 66% 30.20 in 10.0 mi North 3.5 mph - N/A   Clear
8:16 AM 60.3 °F 48.0 °F 64% 30.21 in 10.0 mi NNE 4.6 mph - N/A   Clear
8:35 AM 61.5 °F 47.7 °F 60% 30.21 in 10.0 mi NNE 3.5 mph - N/A   Clear
8:55 AM 63.3 °F 47.7 °F 57% 30.22 in 10.0 mi NNE 4.6 mph - N/A   Clear
9:15 AM 64.0 °F 48.9 °F 58% 30.22 in 10.0 mi Calm Calm - N/A   Clear
9:35 AM 64.6 °F 49.8 °F 59% 30.23 in 10.0 mi NW 4.6 mph - N/A   Clear
9:56 AM 64.9 °F 49.3 °F 57% 30.24 in 10.0 mi NW 3.5 mph - N/A   Clear
10:15 AM 65.7 °F 47.1 °F 51% 30.24 in 10.0 mi NNW 4.6 mph - N/A   Clear
10:36 AM 68.4 °F 45.3 °F 44% 30.24 in 10.0 mi North 5.8 mph - N/A   Clear
10:55 AM 68.9 °F 42.1 °F 38% 30.25 in 10.0 mi North 4.6 mph - N/A   Clear
11:16 AM 68.9 °F 40.1 °F 35% 30.24 in 10.0 mi NW 5.8 mph - N/A   Clear
11:36 AM 68.7 °F 34.2 °F 28% 30.24 in 10.0 mi North 9.2 mph - N/A   Clear
11:55 AM 68.9 °F 37.0 °F 31% 30.25 in 10.0 mi WNW 5.8 mph - N/A   Clear
12:15 PM 70.0 °F 37.8 °F 31% 30.25 in 10.0 mi NW 8.1 mph - N/A   Clear
12:35 PM 70.0 °F 37.0 °F 30% 30.25 in 10.0 mi North 6.9 mph - N/A   Clear
12:55 PM 70.9 °F 36.0 °F 28% 30.24 in 10.0 mi North 5.8 mph - N/A   Clear
1:15 PM 71.4 °F 35.6 °F 27% 30.24 in 10.0 mi NNW 5.8 mph - N/A   Clear
1:35 PM 72.9 °F 36.7 °F 27% 30.23 in 10.0 mi NW 3.5 mph - N/A   Clear
1:55 PM 73.0 °F 35.1 °F 25% 30.23 in 10.0 mi NNW 4.6 mph - N/A   Clear
2:15 PM 73.4 °F 36.0 °F 26% 30.23 in 10.0 mi North 8.1 mph - N/A   Clear
2:35 PM 73.9 °F 34.0 °F 23% 30.23 in 10.0 mi NW 4.6 mph - N/A   Clear
2:56 PM 74.7 °F 33.3 °F 22% 30.23 in 10.0 mi North 8.1 mph - N/A   Clear
3:15 PM 74.7 °F 33.1 °F 22% 30.23 in 10.0 mi WNW 4.6 mph - N/A   Clear
3:55 PM 74.5 °F 32.4 °F 21% 30.23 in 10.0 mi North 4.6 mph - N/A   Clear
4:15 PM 75.4 °F 32.2 °F 21% 30.23 in 10.0 mi NW 3.5 mph - N/A   Clear
4:35 PM 75.2 °F 35.4 °F 24% 30.22 in 10.0 mi NE 3.5 mph - N/A   Clear
4:55 PM 74.8 °F 32.9 °F 22% 30.22 in 10.0 mi Calm Calm - N/A   Clear
5:15 PM 74.3 °F 33.1 °F 22% 30.22 in 10.0 mi North 4.6 mph - N/A   Clear
5:35 PM 74.8 °F 33.8 °F 22% 30.22 in 2.5 mi North 5.8 mph - N/A   Haze
5:56 PM 74.7 °F 33.4 °F 22% 30.22 in 10.0 mi Calm Calm - N/A   Clear
6:15 PM 75.0 °F 32.9 °F 21% 30.22 in 10.0 mi Calm Calm - N/A   Clear
6:35 PM 75.6 °F 35.2 °F 23% 30.23 in 10.0 mi East 3.5 mph - N/A   Clear
6:56 PM 74.5 °F 32.9 °F 22% 30.23 in 10.0 mi SE 3.5 mph - N/A   Clear
7:15 PM 73.6 °F 35.1 °F 25% 30.23 in 10.0 mi Calm Calm - N/A   Clear
7:36 PM 72.0 °F 39.2 °F 30% 30.23 in 10.0 mi Calm Calm - N/A   Clear
7:55 PM 68.9 °F 35.8 °F 30% 30.24 in 3.0 mi Calm Calm - N/A   Haze
8:15 PM 65.1 °F 41.7 °F 42% 30.24 in 7.0 mi Calm Calm - N/A   Clear
8:35 PM 63.3 °F 45.3 °F 52% 30.24 in 10.0 mi Calm Calm - N/A   Clear
8:55 PM 59.9 °F 49.1 °F 67% 30.24 in 10.0 mi Calm Calm - N/A   Clear
9:15 PM 59.0 °F 48.6 °F 68% 30.24 in 10.0 mi Calm Calm - N/A   Clear
9:35 PM 57.6 °F 48.6 °F 72% 30.24 in 10.0 mi Calm Calm - N/A   Clear
9:55 PM 56.8 °F 47.7 °F 71% 30.25 in 10.0 mi Calm Calm - N/A   Clear
10:16 PM 56.7 °F 47.5 °F 71% 30.25 in 10.0 mi SSE 3.5 mph - N/A   Clear
10:36 PM 57.9 °F 45.3 °F 63% 30.25 in 10.0 mi SSE 3.5 mph - N/A   Clear
10:55 PM 56.8 °F 45.7 °F 66% 30.25 in 10.0 mi Calm Calm - N/A   Clear
11:16 PM 55.8 °F 45.1 °F 67% 30.25 in 10.0 mi Calm Calm - N/A   Clear
11:36 PM 56.7 °F 45.3 °F 66% 30.25 in 10.0 mi SSE 4.6 mph - N/A   Clear
11:55 PM 56.1 °F 45.5 °F 68% 30.25 in 10.0 mi East 4.6 mph - N/A   Mostly Cloudy